LBE weather

Arnold Palmer Regional Airport
Latrobe, Pennsylvania, United States

Public forecast

Using degrees Fahrenheit for public forecast. Weather courtesy of forecast.io.

Current aviation weather report (METAR) for Arnold Palmer Regional Airport

Retrieved 2019/10/19 03:35 UTC (19 minutes ago):

KLBE 190335Z AUTO 00000KT 10SM CLR 02/02 A3007 RMK AO2

Aviation forecast (TAF) for Arnold Palmer Regional Airport

Retrieved 2019-10-19 00:22 UTC (4 hours ago):

TAF KLBE 182320Z 1900/1924 VRB03KT P6SM SCT250